sensor_id;sensor_type;location;lat;lon;timestamp;pressure;altitude;pressure_sealevel;temperature;humidity
75072;BME280;63651;55.728;38.022;2024-01-30T00:00:46;100509.81;;;14.02;33.52
75072;BME280;63651;55.728;38.022;2024-01-30T00:05:49;100502.03;;;13.99;33.60
75072;BME280;63651;55.728;38.022;2024-01-30T00:10:52;100502.88;;;13.99;33.55
75072;BME280;63651;55.728;38.022;2024-01-30T00:15:55;100506.25;;;14.01;33.37
75072;BME280;63651;55.728;38.022;2024-01-30T00:20:58;100505.19;;;14.02;33.06
75072;BME280;63651;55.728;38.022;2024-01-30T00:26:00;100485.84;;;13.97;33.43
75072;BME280;63651;55.728;38.022;2024-01-30T00:31:03;100487.97;;;14.02;32.98
75072;BME280;63651;55.728;38.022;2024-01-30T00:36:08;100489.81;;;13.95;32.68
75072;BME280;63651;55.728;38.022;2024-01-30T00:41:11;100490.84;;;13.87;33.08
75072;BME280;63651;55.728;38.022;2024-01-30T00:46:13;100480.31;;;13.84;32.66
75072;BME280;63651;55.728;38.022;2024-01-30T00:51:15;100484.34;;;13.88;32.63
75072;BME280;63651;55.728;38.022;2024-01-30T00:56:16;100462.22;;;13.76;33.18
75072;BME280;63651;55.728;38.022;2024-01-30T01:01:20;100468.16;;;13.87;33.13
75072;BME280;63651;55.728;38.022;2024-01-30T01:06:23;100466.44;;;13.79;33.31
75072;BME280;63651;55.728;38.022;2024-01-30T01:11:26;100483.66;;;13.80;32.90
75072;BME280;63651;55.728;38.022;2024-01-30T01:16:28;100464.16;;;13.83;32.38
75072;BME280;63651;55.728;38.022;2024-01-30T01:21:31;100466.25;;;13.81;33.31
75072;BME280;63651;55.728;38.022;2024-01-30T01:26:32;100461.16;;;13.71;33.08
75072;BME280;63651;55.728;38.022;2024-01-30T01:31:35;100449.88;;;13.87;33.00
75072;BME280;63651;55.728;38.022;2024-01-30T01:36:38;100453.63;;;13.80;32.62
75072;BME280;63651;55.728;38.022;2024-01-30T01:41:40;100452.13;;;13.70;32.92
75072;BME280;63651;55.728;38.022;2024-01-30T01:46:43;100443.72;;;13.72;32.61
75072;BME280;63651;55.728;38.022;2024-01-30T01:51:47;100429.25;;;13.78;32.57
75072;BME280;63651;55.728;38.022;2024-01-30T01:56:51;100431.16;;;13.84;32.51
75072;BME280;63651;55.728;38.022;2024-01-30T02:01:55;100443.97;;;13.77;32.49
75072;BME280;63651;55.728;38.022;2024-01-30T02:06:58;100441.63;;;13.74;32.86
75072;BME280;63651;55.728;38.022;2024-01-30T02:12:00;100437.84;;;13.75;32.29
75072;BME280;63651;55.728;38.022;2024-01-30T02:17:03;100426.25;;;13.60;32.90
75072;BME280;63651;55.728;38.022;2024-01-30T02:22:06;100430.47;;;13.62;33.22
75072;BME280;63651;55.728;38.022;2024-01-30T02:27:09;100447.72;;;13.69;33.12
75072;BME280;63651;55.728;38.022;2024-01-30T02:32:12;100439.47;;;13.56;33.03
75072;BME280;63651;55.728;38.022;2024-01-30T02:37:14;100437.56;;;13.57;33.12
75072;BME280;63651;55.728;38.022;2024-01-30T02:42:17;100421.03;;;13.65;33.17
75072;BME280;63651;55.728;38.022;2024-01-30T02:47:19;100434.88;;;13.63;32.92
75072;BME280;63651;55.728;38.022;2024-01-30T02:52:22;100419.53;;;13.62;32.77
75072;BME280;63651;55.728;38.022;2024-01-30T02:57:24;100430.66;;;13.61;33.11
75072;BME280;63651;55.728;38.022;2024-01-30T03:02:27;100435.50;;;13.65;33.52
75072;BME280;63651;55.728;38.022;2024-01-30T03:07:30;100441.19;;;13.64;32.78
75072;BME280;63651;55.728;38.022;2024-01-30T03:12:33;100446.97;;;13.48;33.08
75072;BME280;63651;55.728;38.022;2024-01-30T03:17:35;100476.19;;;13.54;33.52
75072;BME280;63651;55.728;38.022;2024-01-30T03:22:38;100466.13;;;13.54;33.25
75072;BME280;63651;55.728;38.022;2024-01-30T03:27:40;100461.69;;;13.53;33.60
75072;BME280;63651;55.728;38.022;2024-01-30T03:32:41;100457.91;;;13.48;33.47
75072;BME280;63651;55.728;38.022;2024-01-30T03:37:43;100461.88;;;13.45;33.80
75072;BME280;63651;55.728;38.022;2024-01-30T03:42:46;100456.72;;;13.63;33.73
75072;BME280;63651;55.728;38.022;2024-01-30T03:47:48;100455.63;;;13.58;33.63
75072;BME280;63651;55.728;38.022;2024-01-30T03:52:51;100459.53;;;13.42;35.04
75072;BME280;63651;55.728;38.022;2024-01-30T03:57:53;100449.28;;;13.44;35.09
75072;BME280;63651;55.728;38.022;2024-01-30T04:02:56;100461.06;;;13.51;34.69
75072;BME280;63651;55.728;38.022;2024-01-30T04:07:59;100482.53;;;13.61;34.68
75072;BME280;63651;55.728;38.022;2024-01-30T04:13:02;100473.09;;;13.63;34.73
75072;BME280;63651;55.728;38.022;2024-01-30T04:18:04;100470.53;;;13.55;35.01
75072;BME280;63651;55.728;38.022;2024-01-30T04:23:08;100472.66;;;13.60;35.19
75072;BME280;63651;55.728;38.022;2024-01-30T04:28:10;100462.81;;;13.65;34.89
75072;BME280;63651;55.728;38.022;2024-01-30T04:33:13;100465.38;;;13.73;34.86
75072;BME280;63651;55.728;38.022;2024-01-30T04:38:15;100450.81;;;16.42;32.12
75072;BME280;63651;55.728;38.022;2024-01-30T04:43:18;100470.84;;;17.06;31.28
75072;BME280;63651;55.728;38.022;2024-01-30T04:48:20;100469.16;;;17.48;30.69
75072;BME280;63651;55.728;38.022;2024-01-30T04:53:22;100475.88;;;17.88;29.72
75072;BME280;63651;55.728;38.022;2024-01-30T04:58:24;100470.13;;;16.22;30.85
75072;BME280;63651;55.728;38.022;2024-01-30T05:03:27;100474.44;;;15.60;31.46
75072;BME280;63651;55.728;38.022;2024-01-30T05:08:29;100463.69;;;15.39;31.89
75072;BME280;63651;55.728;38.022;2024-01-30T05:13:31;100463.28;;;15.22;31.91
75072;BME280;63651;55.728;38.022;2024-01-30T05:18:34;100472.16;;;15.04;32.09
75072;BME280;63651;55.728;38.022;2024-01-30T05:23:36;100481.63;;;15.02;32.02
75072;BME280;63651;55.728;38.022;2024-01-30T05:28:38;100492.78;;;15.00;31.60
75072;BME280;63651;55.728;38.022;2024-01-30T05:33:40;100491.13;;;14.93;32.32
75072;BME280;63651;55.728;38.022;2024-01-30T05:38:42;100501.00;;;14.94;31.67
75072;BME280;63651;55.728;38.022;2024-01-30T05:43:45;100492.38;;;14.90;31.91
75072;BME280;63651;55.728;38.022;2024-01-30T05:48:48;100499.75;;;14.83;31.76
75072;BME280;63651;55.728;38.022;2024-01-30T05:53:50;100503.53;;;14.89;31.77
75072;BME280;63651;55.728;38.022;2024-01-30T05:58:53;100507.09;;;14.96;31.57
75072;BME280;63651;55.728;38.022;2024-01-30T06:03:55;100506.25;;;15.02;31.67
75072;BME280;63651;55.728;38.022;2024-01-30T06:08:57;100513.00;;;14.99;31.53
75072;BME280;63651;55.728;38.022;2024-01-30T06:13:59;100521.84;;;14.95;31.67
75072;BME280;63651;55.728;38.022;2024-01-30T06:19:00;100521.63;;;14.90;31.53
75072;BME280;63651;55.728;38.022;2024-01-30T06:24:04;100517.63;;;14.92;31.60
75072;BME280;63651;55.728;38.022;2024-01-30T06:29:06;100521.63;;;14.96;31.48
75072;BME280;63651;55.728;38.022;2024-01-30T06:34:28;61607.56;;;-144.15;100.00
75072;BME280;63651;55.728;38.022;2024-01-30T06:39:30;61607.56;;;-144.15;100.00
75072;BME280;63651;55.728;38.022;2024-01-30T06:44:32;61607.56;;;-144.15;100.00
75072;BME280;63651;55.728;38.022;2024-01-30T06:49:35;61607.56;;;-144.15;100.00
75072;BME280;63651;55.728;38.022;2024-01-30T06:54:40;61607.56;;;-144.15;100.00
75072;BME280;63651;55.728;38.022;2024-01-30T06:59:47;61607.56;;;-144.15;100.00
75072;BME280;63651;55.728;38.022;2024-01-30T07:04:49;61607.56;;;-144.15;100.00
75072;BME280;63651;55.728;38.022;2024-01-30T07:09:52;61607.56;;;-144.15;100.00
75072;BME280;63651;55.728;38.022;2024-01-30T07:14:58;61607.56;;;-144.15;100.00
75072;BME280;63651;55.728;38.022;2024-01-30T07:20:01;61607.56;;;-144.15;100.00
75072;BME280;63651;55.728;38.022;2024-01-30T07:25:06;61607.56;;;-144.15;100.00
75072;BME280;63651;55.728;38.022;2024-01-30T07:30:11;61607.56;;;-144.15;100.00
75072;BME280;63651;55.728;38.022;2024-01-30T07:35:14;61607.56;;;-144.15;100.00
75072;BME280;63651;55.728;38.022;2024-01-30T07:40:17;61607.56;;;-144.15;100.00
75072;BME280;63651;55.728;38.022;2024-01-30T07:45:20;61607.56;;;-144.15;100.00
75072;BME280;63651;55.728;38.022;2024-01-30T07:50:26;61607.56;;;-144.15;100.00
75072;BME280;63651;55.728;38.022;2024-01-30T07:55:28;61607.56;;;-144.15;100.00
75072;BME280;63651;55.728;38.022;2024-01-30T08:00:32;61607.56;;;-144.15;100.00
75072;BME280;63651;55.728;38.022;2024-01-30T08:05:35;61607.56;;;-144.15;100.00
75072;BME280;63651;55.728;38.022;2024-01-30T08:10:37;61607.56;;;-144.15;100.00
75072;BME280;63651;55.728;38.022;2024-01-30T08:15:40;61607.56;;;-144.15;100.00
75072;BME280;63651;55.728;38.022;2024-01-30T08:20:42;61607.56;;;-144.15;100.00
75072;BME280;63651;55.728;38.022;2024-01-30T08:25:44;61607.56;;;-144.15;100.00
75072;BME280;63651;55.728;38.022;2024-01-30T08:30:46;61607.56;;;-144.15;100.00
75072;BME280;63651;55.728;38.022;2024-01-30T08:35:49;61607.56;;;-144.15;100.00
75072;BME280;63651;55.728;38.022;2024-01-30T08:40:52;61607.56;;;-144.15;100.00
75072;BME280;63651;55.728;38.022;2024-01-30T08:45:54;61607.56;;;-144.15;100.00
75072;BME280;63651;55.728;38.022;2024-01-30T08:50:55;61607.56;;;-144.15;100.00
75072;BME280;63651;55.728;38.022;2024-01-30T08:55:57;61607.56;;;-144.15;100.00
75072;BME280;63651;55.728;38.022;2024-01-30T09:01:01;61607.56;;;-144.15;100.00
75072;BME280;63651;55.728;38.022;2024-01-30T09:06:03;61607.56;;;-144.15;100.00
75072;BME280;63651;55.728;38.022;2024-01-30T09:11:09;61607.56;;;-144.15;100.00
75072;BME280;63651;55.728;38.022;2024-01-30T09:16:12;61607.56;;;-144.15;100.00
75072;BME280;63651;55.728;38.022;2024-01-30T09:21:16;61607.56;;;-144.15;100.00
75072;BME280;63651;55.728;38.022;2024-01-30T09:26:18;61607.56;;;-144.15;100.00
75072;BME280;63651;55.728;38.022;2024-01-30T09:31:21;61607.56;;;-144.15;100.00
75072;BME280;63651;55.728;38.022;2024-01-30T09:36:22;61607.56;;;-144.15;100.00
75072;BME280;63651;55.728;38.022;2024-01-30T09:41:25;61607.56;;;-144.15;100.00
75072;BME280;63651;55.728;38.022;2024-01-30T09:46:31;61607.56;;;-144.15;100.00
75072;BME280;63651;55.728;38.022;2024-01-30T09:51:34;61607.56;;;-144.15;100.00
75072;BME280;63651;55.728;38.022;2024-01-30T09:56:38;61607.56;;;-144.15;100.00
75072;BME280;63651;55.728;38.022;2024-01-30T10:01:40;61607.56;;;-144.15;100.00
75072;BME280;63651;55.728;38.022;2024-01-30T10:06:42;61607.56;;;-144.15;100.00
75072;BME280;63651;55.728;38.022;2024-01-30T10:11:44;61607.56;;;-144.15;100.00
75072;BME280;63651;55.728;38.022;2024-01-30T10:16:47;61607.56;;;-144.15;100.00
75072;BME280;63651;55.728;38.022;2024-01-30T10:21:50;61607.56;;;-144.15;100.00
75072;BME280;63651;55.728;38.022;2024-01-30T10:26:55;61607.56;;;-144.15;100.00
75072;BME280;63651;55.728;38.022;2024-01-30T10:32:02;61607.56;;;-144.15;100.00
75072;BME280;63651;55.728;38.022;2024-01-30T10:37:10;61607.56;;;-144.15;100.00
75072;BME280;63651;55.728;38.022;2024-01-30T10:42:19;61607.56;;;-144.15;100.00
75072;BME280;63651;55.728;38.022;2024-01-30T10:47:27;61607.56;;;-144.15;100.00
75072;BME280;63651;55.728;38.022;2024-01-30T10:52:29;61607.56;;;-144.15;100.00
75072;BME280;63651;55.728;38.022;2024-01-30T10:57:34;61607.56;;;-144.15;100.00
75072;BME280;63651;55.728;38.022;2024-01-30T11:02:44;61607.56;;;-144.15;100.00
75072;BME280;63651;55.728;38.022;2024-01-30T11:07:47;61607.56;;;-144.15;100.00
75072;BME280;63651;55.728;38.022;2024-01-30T11:12:50;61607.56;;;-144.15;100.00
75072;BME280;63651;55.728;38.022;2024-01-30T11:17:53;61607.56;;;-144.15;100.00
75072;BME280;63651;55.728;38.022;2024-01-30T11:22:56;61607.56;;;-144.15;100.00
75072;BME280;63651;55.728;38.022;2024-01-30T11:27:58;61607.56;;;-144.15;100.00
75072;BME280;63651;55.728;38.022;2024-01-30T11:33:11;61607.56;;;-144.15;100.00
75072;BME280;63651;55.728;38.022;2024-01-30T11:38:14;61607.56;;;-144.15;100.00
75072;BME280;63651;55.728;38.022;2024-01-30T11:43:16;61607.56;;;-144.15;100.00
75072;BME280;63651;55.728;38.022;2024-01-30T11:48:20;61607.56;;;-144.15;100.00
75072;BME280;63651;55.728;38.022;2024-01-30T11:53:22;61607.56;;;-144.15;100.00
75072;BME280;63651;55.728;38.022;2024-01-30T11:58:25;61607.56;;;-144.15;100.00
75072;BME280;63651;55.728;38.022;2024-01-30T12:03:28;61607.56;;;-144.15;100.00
75072;BME280;63651;55.728;38.022;2024-01-30T12:08:31;61607.56;;;-144.15;100.00
75072;BME280;63651;55.728;38.022;2024-01-30T12:13:33;61607.56;;;-144.15;100.00
75072;BME280;63651;55.728;38.022;2024-01-30T12:18:40;61607.56;;;-144.15;100.00
75072;BME280;63651;55.728;38.022;2024-01-30T12:23:44;61607.56;;;-144.15;100.00
75072;BME280;63651;55.728;38.022;2024-01-30T12:28:50;61607.56;;;-144.15;100.00
75072;BME280;63651;55.728;38.022;2024-01-30T12:33:52;61607.56;;;-144.15;100.00
75072;BME280;63651;55.728;38.022;2024-01-30T12:38:54;61607.56;;;-144.15;100.00
75072;BME280;63651;55.728;38.022;2024-01-30T12:43:57;61607.56;;;-144.15;100.00
75072;BME280;63651;55.728;38.022;2024-01-30T12:49:00;61607.56;;;-144.15;100.00
75072;BME280;63651;55.728;38.022;2024-01-30T12:54:05;61607.56;;;-144.15;100.00
75072;BME280;63651;55.728;38.022;2024-01-30T12:59:09;61607.56;;;-144.15;100.00
75072;BME280;63651;55.728;38.022;2024-01-30T13:04:11;61607.56;;;-144.15;100.00
75072;BME280;63651;55.728;38.022;2024-01-30T13:09:13;61607.56;;;-144.15;100.00
75072;BME280;63651;55.728;38.022;2024-01-30T13:14:15;61607.56;;;-144.15;100.00
75072;BME280;63651;55.728;38.022;2024-01-30T13:19:18;61607.56;;;-144.15;100.00
75072;BME280;63651;55.728;38.022;2024-01-30T13:24:21;61607.56;;;-144.15;100.00
75072;BME280;63651;55.728;38.022;2024-01-30T13:29:26;61607.56;;;-144.15;100.00
75072;BME280;63651;55.728;38.022;2024-01-30T13:34:29;61607.56;;;-144.15;100.00
75072;BME280;63651;55.728;38.022;2024-01-30T13:39:32;61607.56;;;-144.15;100.00
75072;BME280;63651;55.728;38.022;2024-01-30T13:44:35;61607.56;;;-144.15;100.00
75072;BME280;63651;55.728;38.022;2024-01-30T13:49:38;61607.56;;;-144.15;100.00
75072;BME280;63651;55.728;38.022;2024-01-30T13:54:40;61607.56;;;-144.15;100.00
75072;BME280;63651;55.728;38.022;2024-01-30T13:59:42;61607.56;;;-144.15;100.00
75072;BME280;63651;55.728;38.022;2024-01-30T14:04:44;61607.56;;;-144.15;100.00
75072;BME280;63651;55.728;38.022;2024-01-30T14:09:48;61607.56;;;-144.15;100.00
75072;BME280;63651;55.728;38.022;2024-01-30T14:14:50;61607.56;;;-144.15;100.00
75072;BME280;63651;55.728;38.022;2024-01-30T14:19:52;61607.56;;;-144.15;100.00
75072;BME280;63651;55.728;38.022;2024-01-30T14:24:54;61607.56;;;-144.15;100.00
75072;BME280;63651;55.728;38.022;2024-01-30T14:29:58;61607.56;;;-144.15;100.00
75072;BME280;63651;55.728;38.022;2024-01-30T14:35:00;61607.56;;;-144.15;100.00
75072;BME280;63651;55.728;38.022;2024-01-30T14:40:03;61607.56;;;-144.15;100.00
75072;BME280;63651;55.728;38.022;2024-01-30T14:45:06;61607.56;;;-144.15;100.00
75072;BME280;63651;55.728;38.022;2024-01-30T14:50:08;61607.56;;;-144.15;100.00
75072;BME280;63651;55.728;38.022;2024-01-30T14:55:10;61607.56;;;-144.15;100.00
75072;BME280;63651;55.728;38.022;2024-01-30T15:00:14;61607.56;;;-144.15;100.00
75072;BME280;63651;55.728;38.022;2024-01-30T15:05:19;61607.56;;;-144.15;100.00
75072;BME280;63651;55.728;38.022;2024-01-30T15:10:21;61607.56;;;-144.15;100.00
75072;BME280;63651;55.728;38.022;2024-01-30T15:15:25;61607.56;;;-144.15;100.00
75072;BME280;63651;55.728;38.022;2024-01-30T15:20:29;61607.56;;;-144.15;100.00
75072;BME280;63651;55.728;38.022;2024-01-30T15:25:33;61607.56;;;-144.15;100.00
75072;BME280;63651;55.728;38.022;2024-01-30T15:30:34;61607.56;;;-144.15;100.00
75072;BME280;63651;55.728;38.022;2024-01-30T15:35:37;61607.56;;;-144.15;100.00
75072;BME280;63651;55.728;38.022;2024-01-30T15:40:40;61607.56;;;-144.15;100.00
75072;BME280;63651;55.728;38.022;2024-01-30T15:45:42;61607.56;;;-144.15;100.00
75072;BME280;63651;55.728;38.022;2024-01-30T15:50:44;61607.56;;;-144.15;100.00
75072;BME280;63651;55.728;38.022;2024-01-30T15:55:46;61607.56;;;-144.15;100.00
75072;BME280;63651;55.728;38.022;2024-01-30T16:00:48;61607.56;;;-144.15;100.00
75072;BME280;63651;55.728;38.022;2024-01-30T16:05:51;61607.56;;;-144.15;100.00
75072;BME280;63651;55.728;38.022;2024-01-30T16:10:53;61607.56;;;-144.15;100.00
75072;BME280;63651;55.728;38.022;2024-01-30T16:15:56;61607.56;;;-144.15;100.00
75072;BME280;63651;55.728;38.022;2024-01-30T16:20:59;61607.56;;;-144.15;100.00
75072;BME280;63651;55.728;38.022;2024-01-30T16:26:01;61607.56;;;-144.15;100.00
75072;BME280;63651;55.728;38.022;2024-01-30T16:31:04;61607.56;;;-144.15;100.00
75072;BME280;63651;55.728;38.022;2024-01-30T16:36:07;100734.34;;;16.41;31.36
75072;BME280;63651;55.728;38.022;2024-01-30T16:41:10;100735.72;;;16.83;30.78
75072;BME280;63651;55.728;38.022;2024-01-30T16:46:13;100732.16;;;17.27;30.23
75072;BME280;63651;55.728;38.022;2024-01-30T16:51:16;100729.41;;;17.59;29.95
75072;BME280;63651;55.728;38.022;2024-01-30T16:56:18;100732.88;;;18.04;29.55
75072;BME280;63651;55.728;38.022;2024-01-30T17:01:20;100731.69;;;18.18;29.18
75072;BME280;63651;55.728;38.022;2024-01-30T17:06:23;100725.00;;;18.33;29.66
75072;BME280;63651;55.728;38.022;2024-01-30T17:11:25;100728.75;;;18.38;29.31
75072;BME280;63651;55.728;38.022;2024-01-30T17:16:27;100728.16;;;18.54;29.43
75072;BME280;63651;55.728;38.022;2024-01-30T17:21:30;100724.72;;;18.59;29.69
75072;BME280;63651;55.728;38.022;2024-01-30T17:26:33;100726.81;;;18.82;28.95
75072;BME280;63651;55.728;38.022;2024-01-30T17:31:35;100737.88;;;18.94;29.23
75072;BME280;63651;55.728;38.022;2024-01-30T17:36:38;100735.81;;;18.89;29.61
75072;BME280;63651;55.728;38.022;2024-01-30T17:41:40;100744.75;;;19.03;29.45
75072;BME280;63651;55.728;38.022;2024-01-30T17:46:42;100740.84;;;19.10;29.33
75072;BME280;63651;55.728;38.022;2024-01-30T17:51:45;100732.81;;;19.09;29.36
75072;BME280;63651;55.728;38.022;2024-01-30T17:56:48;100736.47;;;19.21;28.93
75072;BME280;63651;55.728;38.022;2024-01-30T18:01:50;100724.78;;;19.07;29.25
75072;BME280;63651;55.728;38.022;2024-01-30T18:06:53;100742.28;;;19.13;29.18
75072;BME280;63651;55.728;38.022;2024-01-30T18:11:56;100737.31;;;19.22;29.25
75072;BME280;63651;55.728;38.022;2024-01-30T18:16:58;100735.56;;;19.39;28.94
75072;BME280;63651;55.728;38.022;2024-01-30T18:22:00;100738.22;;;19.45;28.74
75072;BME280;63651;55.728;38.022;2024-01-30T18:27:03;100734.03;;;19.43;28.70
75072;BME280;63651;55.728;38.022;2024-01-30T18:32:06;100731.88;;;19.45;28.81
75072;BME280;63651;55.728;38.022;2024-01-30T18:37:10;100725.28;;;19.46;28.86
75072;BME280;63651;55.728;38.022;2024-01-30T18:42:11;100724.81;;;19.49;28.69
75072;BME280;63651;55.728;38.022;2024-01-30T18:47:14;100723.09;;;19.55;28.60
75072;BME280;63651;55.728;38.022;2024-01-30T18:52:17;100718.47;;;19.48;28.75
75072;BME280;63651;55.728;38.022;2024-01-30T18:57:19;100717.34;;;19.56;28.35
75072;BME280;63651;55.728;38.022;2024-01-30T19:02:25;100714.38;;;19.58;28.48
75072;BME280;63651;55.728;38.022;2024-01-30T19:07:27;100714.97;;;19.60;28.38
75072;BME280;63651;55.728;38.022;2024-01-30T19:12:30;100725.59;;;17.91;29.51
75072;BME280;63651;55.728;38.022;2024-01-30T19:17:33;100729.03;;;16.53;31.49
75072;BME280;63651;55.728;38.022;2024-01-30T19:22:37;100725.13;;;16.09;31.30
75072;BME280;63651;55.728;38.022;2024-01-30T19:27:40;100725.06;;;15.43;32.35
75072;BME280;63651;55.728;38.022;2024-01-30T19:32:43;100716.13;;;15.01;32.72
75072;BME280;63651;55.728;38.022;2024-01-30T19:37:45;100723.53;;;14.60;33.36
75072;BME280;63651;55.728;38.022;2024-01-30T19:42:47;100725.06;;;14.41;33.73
75072;BME280;63651;55.728;38.022;2024-01-30T19:47:52;100737.84;;;14.06;34.22
75072;BME280;63651;55.728;38.022;2024-01-30T19:52:55;100739.78;;;13.84;34.82
75072;BME280;63651;55.728;38.022;2024-01-30T19:57:57;100739.78;;;13.84;34.72
75072;BME280;63651;55.728;38.022;2024-01-30T20:02:59;100741.81;;;13.54;35.54
75072;BME280;63651;55.728;38.022;2024-01-30T20:08:02;100744.81;;;13.38;35.58
75072;BME280;63651;55.728;38.022;2024-01-30T20:13:04;100741.56;;;13.28;36.12
75072;BME280;63651;55.728;38.022;2024-01-30T20:18:08;100745.66;;;13.02;36.77
75072;BME280;63651;55.728;38.022;2024-01-30T20:23:10;100734.44;;;12.97;36.21
75072;BME280;63651;55.728;38.022;2024-01-30T20:28:13;100736.34;;;12.82;36.75
75072;BME280;63651;55.728;38.022;2024-01-30T20:33:15;100734.31;;;12.10;37.24
75072;BME280;63651;55.728;38.022;2024-01-30T20:38:18;100738.25;;;11.93;37.57
75072;BME280;63651;55.728;38.022;2024-01-30T20:43:21;100729.75;;;11.65;38.30
75072;BME280;63651;55.728;38.022;2024-01-30T20:48:22;100734.91;;;11.60;38.38
75072;BME280;63651;55.728;38.022;2024-01-30T20:53:24;100738.13;;;11.41;38.63
75072;BME280;63651;55.728;38.022;2024-01-30T20:58:26;100744.66;;;11.32;39.01
75072;BME280;63651;55.728;38.022;2024-01-30T21:03:30;100748.28;;;11.24;39.63
75072;BME280;63651;55.728;38.022;2024-01-30T21:08:33;100745.56;;;11.24;39.15
75072;BME280;63651;55.728;38.022;2024-01-30T21:13:35;100748.56;;;11.06;39.18
75072;BME280;63651;55.728;38.022;2024-01-30T21:18:37;100740.94;;;11.02;39.68
75072;BME280;63651;55.728;38.022;2024-01-30T21:23:45;100737.47;;;10.85;39.75
75072;BME280;63651;55.728;38.022;2024-01-30T21:28:47;100739.31;;;10.93;39.80
75072;BME280;63651;55.728;38.022;2024-01-30T21:33:49;100721.28;;;10.92;39.84
75072;BME280;63651;55.728;38.022;2024-01-30T21:38:51;100717.03;;;10.66;40.31
75072;BME280;63651;55.728;38.022;2024-01-30T21:43:53;100718.03;;;10.65;40.61
75072;BME280;63651;55.728;38.022;2024-01-30T21:48:55;100725.91;;;10.52;40.38
75072;BME280;63651;55.728;38.022;2024-01-30T21:53:58;100716.53;;;10.63;40.27
75072;BME280;63651;55.728;38.022;2024-01-30T21:59:01;100716.56;;;10.54;40.33
75072;BME280;63651;55.728;38.022;2024-01-30T22:04:03;100725.41;;;10.48;41.07
75072;BME280;63651;55.728;38.022;2024-01-30T22:09:09;100696.75;;;10.46;40.64
75072;BME280;63651;55.728;38.022;2024-01-30T22:14:11;100715.22;;;10.50;40.85
75072;BME280;63651;55.728;38.022;2024-01-30T22:19:14;100708.06;;;10.57;40.54
75072;BME280;63651;55.728;38.022;2024-01-30T22:24:17;100706.75;;;10.45;40.97
75072;BME280;63651;55.728;38.022;2024-01-30T22:29:20;100707.44;;;10.39;40.78
75072;BME280;63651;55.728;38.022;2024-01-30T22:34:23;100698.44;;;10.39;40.54
75072;BME280;63651;55.728;38.022;2024-01-30T22:39:26;100705.91;;;10.37;41.04
75072;BME280;63651;55.728;38.022;2024-01-30T22:44:28;100718.84;;;10.26;40.90
75072;BME280;63651;55.728;38.022;2024-01-30T22:49:31;100706.97;;;10.27;41.78
75072;BME280;63651;55.728;38.022;2024-01-30T22:54:33;100700.88;;;10.25;40.97
75072;BME280;63651;55.728;38.022;2024-01-30T22:59:35;100702.03;;;10.31;41.35
75072;BME280;63651;55.728;38.022;2024-01-30T23:04:37;100704.78;;;10.23;41.60
75072;BME280;63651;55.728;38.022;2024-01-30T23:09:39;100706.97;;;10.19;41.82
75072;BME280;63651;55.728;38.022;2024-01-30T23:14:41;100690.00;;;10.17;42.22
75072;BME280;63651;55.728;38.022;2024-01-30T23:19:46;100698.50;;;10.22;41.26
75072;BME280;63651;55.728;38.022;2024-01-30T23:24:48;100697.16;;;10.10;41.40
75072;BME280;63651;55.728;38.022;2024-01-30T23:29:50;100704.41;;;10.18;42.06
75072;BME280;63651;55.728;38.022;2024-01-30T23:34:53;100708.16;;;10.25;41.67
75072;BME280;63651;55.728;38.022;2024-01-30T23:39:55;100696.44;;;10.16;41.44
75072;BME280;63651;55.728;38.022;2024-01-30T23:44:58;100686.28;;;10.10;41.44
75072;BME280;63651;55.728;38.022;2024-01-30T23:50:01;100693.72;;;10.16;41.73
75072;BME280;63651;55.728;38.022;2024-01-30T23:55:03;100681.88;;;10.09;41.14
